createdAt,value
2019-04-20T00:00:35.896Z,47.31
2019-04-20T00:03:00.986Z,47.33
2019-04-20T00:05:28.886Z,47.55
2019-04-20T00:08:00.629Z,48.62
2019-04-20T00:10:30.101Z,47.74
2019-04-20T00:13:10.554Z,47.21
2019-04-20T00:15:28.224Z,47.33
2019-04-20T00:18:01.236Z,47.21
2019-04-20T00:20:30.958Z,48.56
2019-04-20T00:22:59.687Z,48.00
2019-04-20T00:25:54.585Z,48.16
2019-04-20T00:28:31.622Z,47.75
2019-04-20T00:30:58.722Z,47.67
2019-04-20T00:33:34.952Z,47.79
2019-04-20T00:35:46.324Z,47.51
2019-04-20T00:38:15.989Z,48.10
2019-04-20T00:40:45.475Z,48.84
2019-04-20T00:43:21.222Z,48.56
2019-04-20T00:45:57.361Z,48.40
2019-04-20T00:48:22.700Z,49.69
2019-04-20T00:50:59.401Z,49.37
2019-04-20T00:53:23.874Z,49.13
2019-04-20T00:55:44.417Z,49.15
2019-04-20T00:58:20.202Z,49.26
2019-04-20T01:01:07.330Z,49.54
2019-04-20T01:03:27.662Z,49.63
2019-04-20T01:06:09.752Z,49.94
2019-04-20T01:08:17.120Z,50.79
2019-04-20T01:10:51.498Z,49.82
2019-04-20T01:13:20.357Z,49.63
2019-04-20T01:15:55.421Z,50.02
2019-04-20T01:18:17.097Z,50.04
2019-04-20T01:20:45.406Z,50.37
2019-04-20T01:23:19.000Z,50.02
2019-04-20T01:25:45.858Z,50.07
2019-04-20T01:28:31.023Z,50.20
2019-04-20T01:30:58.209Z,50.04
2019-04-20T01:33:27.900Z,50.73
2019-04-20T01:35:57.127Z,50.16
2019-04-20T01:38:32.928Z,50.44
2019-04-20T01:40:44.402Z,50.88
2019-04-20T01:43:12.699Z,50.96
2019-04-20T01:45:43.937Z,51.07
2019-04-20T01:48:15.112Z,51.86
2019-04-20T01:50:49.876Z,51.67
2019-04-20T01:53:23.749Z,52.39
2019-04-20T01:55:55.767Z,52.33
2019-04-20T01:58:50.574Z,51.81
2019-04-20T02:01:21.073Z,52.13
2019-04-20T02:03:55.085Z,52.79
2019-04-20T02:06:41.874Z,52.56
2019-04-20T02:09:14.547Z,53.01
2019-04-20T02:11:42.587Z,52.84
2019-04-20T02:14:10.250Z,54.11
2019-04-20T02:16:42.726Z,54.16
2019-04-20T02:19:22.934Z,53.04
2019-04-20T02:21:52.046Z,53.16
2019-04-20T02:24:10.518Z,53.28
2019-04-20T02:26:36.923Z,54.27
2019-04-20T02:29:32.451Z,53.82
2019-04-20T02:34:49.622Z,54.33
2019-04-20T02:42:24.244Z,54.91
2019-04-20T02:45:00.752Z,54.76
2019-04-20T02:47:25.392Z,54.88
2019-04-20T02:49:52.473Z,54.73
2019-04-20T02:52:21.057Z,54.67
2019-04-20T02:54:53.535Z,56.19
2019-04-20T02:57:17.939Z,55.73
2019-04-20T02:59:59.512Z,55.36
2019-04-20T03:02:06.480Z,55.87
2019-04-20T03:04:29.498Z,55.19
2019-04-20T03:07:05.221Z,56.85
2019-04-20T03:09:40.416Z,55.76
2019-04-20T03:12:09.195Z,56.48
2019-04-20T03:14:36.214Z,57.64
2019-04-20T03:17:12.851Z,56.45
2019-04-20T03:19:31.358Z,56.37
2019-04-20T03:22:23.559Z,56.16
2019-04-20T03:24:46.872Z,58.51
2019-04-20T03:27:08.261Z,59.56
2019-04-20T03:30:07.794Z,56.39
2019-04-20T03:32:53.873Z,57.89
2019-04-20T03:39:48.870Z,57.49
2019-04-20T03:42:06.998Z,57.69
2019-04-20T03:44:35.984Z,57.83
2019-04-20T03:47:08.837Z,58.63
2019-04-20T03:50:13.243Z,57.57
2019-04-20T03:52:28.848Z,59.11
2019-04-20T03:55:09.592Z,57.96
2019-04-20T03:57:40.980Z,57.48
2019-04-20T04:00:26.715Z,59.80
2019-04-20T04:03:08.449Z,57.65
2019-04-20T04:05:32.499Z,57.68
2019-04-20T04:07:55.961Z,58.19
2019-04-20T04:10:29.303Z,57.63
2019-04-20T04:13:09.359Z,59.34
2019-04-20T04:15:47.924Z,58.43
2019-04-20T04:18:17.165Z,58.57
2019-04-20T04:20:46.727Z,57.96
2019-04-20T04:23:32.574Z,57.76
2019-04-20T04:26:00.885Z,59.48
2019-04-20T04:28:27.043Z,59.62
2019-04-20T04:31:05.185Z,59.73
2019-04-20T04:35:56.847Z,58.67
2019-04-20T04:38:32.706Z,59.29
2019-04-20T04:41:08.512Z,60.22
2019-04-20T04:43:32.614Z,58.60
2019-04-20T04:45:40.640Z,59.58
2019-04-20T04:48:14.731Z,59.59
2019-04-20T04:50:49.578Z,60.35
2019-04-20T04:53:20.589Z,60.32
2019-04-20T04:55:47.718Z,60.16
2019-04-20T04:58:10.599Z,61.68
2019-04-20T05:00:40.727Z,60.75
2019-04-20T05:03:26.707Z,60.14
2019-04-20T05:06:06.490Z,60.24
2019-04-20T05:08:27.387Z,60.43
2019-04-20T05:10:50.410Z,60.48
2019-04-20T05:13:19.902Z,60.59
2019-04-20T05:16:00.425Z,60.71
2019-04-20T05:18:41.556Z,62.59
2019-04-20T05:21:10.993Z,61.93
2019-04-20T05:23:39.991Z,60.48
2019-04-20T05:26:20.046Z,60.72
2019-04-20T05:28:40.755Z,61.07
2019-04-20T05:31:04.506Z,61.46
2019-04-20T05:33:49.743Z,62.17
2019-04-20T05:36:19.173Z,59.60
2019-04-20T05:38:54.354Z,59.86
2019-04-20T05:41:18.809Z,57.83
2019-04-20T05:43:52.051Z,58.57
2019-04-20T05:46:29.157Z,58.07
2019-04-20T05:49:00.303Z,57.66
2019-04-20T05:51:29.779Z,60.89
2019-04-20T05:53:59.213Z,58.30
2019-04-20T05:56:30.710Z,56.78
2019-04-20T05:58:57.973Z,56.34
2019-04-20T06:01:36.378Z,55.46
2019-04-20T06:03:53.888Z,54.69
2019-04-20T06:06:30.606Z,54.40
2019-04-20T06:08:59.215Z,53.92
2019-04-20T06:11:26.727Z,52.74
2019-04-20T06:13:51.492Z,52.37
2019-04-20T06:16:41.011Z,51.76
2019-04-20T06:19:18.289Z,51.41
2019-04-20T06:21:43.960Z,50.62
2019-04-20T06:24:10.634Z,49.74
2019-04-20T06:26:53.636Z,48.99
2019-04-20T06:29:13.680Z,49.07
2019-04-20T06:31:45.941Z,48.76
2019-04-20T06:37:09.861Z,47.30
2019-04-20T06:39:30.992Z,45.36
2019-04-20T06:47:02.865Z,44.27
2019-04-20T06:51:59.340Z,41.79
2019-04-20T06:54:39.472Z,41.72
2019-04-20T06:57:13.004Z,42.05
2019-04-20T07:02:18.697Z,41.81
2019-04-20T07:07:09.723Z,38.38
2019-04-20T07:09:46.206Z,39.42
2019-04-20T07:12:06.398Z,39.10
2019-04-20T07:14:31.529Z,38.82
2019-04-20T07:17:24.464Z,38.66
2019-04-20T07:19:40.223Z,39.11
2019-04-20T07:22:33.729Z,38.24
2019-04-20T07:25:02.410Z,38.83
2019-04-20T07:27:32.485Z,37.91
2019-04-20T07:30:04.095Z,38.38
2019-04-20T07:32:27.898Z,38.49
2019-04-20T07:35:03.289Z,38.46
2019-04-20T07:40:07.751Z,38.17
2019-04-20T07:42:35.090Z,38.21
2019-04-20T07:45:07.628Z,38.32
2019-04-20T07:47:41.584Z,37.96
2019-04-20T07:50:02.443Z,37.07
2019-04-20T07:52:12.230Z,36.78
2019-04-20T07:55:20.192Z,36.25
2019-04-20T07:57:30.756Z,35.88
2019-04-20T07:59:58.987Z,36.21
2019-04-20T08:02:47.332Z,35.11
2019-04-20T08:05:10.650Z,35.88
2019-04-20T08:07:39.300Z,35.43
2019-04-20T08:10:03.840Z,35.59
2019-04-20T08:12:56.884Z,36.06
2019-04-20T08:15:29.730Z,36.40
2019-04-20T08:20:21.757Z,34.74
2019-04-20T08:22:55.317Z,34.57
2019-04-20T08:25:14.170Z,36.57
2019-04-20T08:27:48.801Z,36.34
2019-04-20T08:30:41.380Z,34.96
2019-04-20T08:33:21.020Z,33.53
2019-04-20T08:36:00.922Z,34.11
2019-04-20T08:38:55.969Z,35.92
2019-04-20T08:40:53.575Z,34.73
2019-04-20T08:43:39.476Z,33.85
2019-04-20T08:45:52.435Z,33.74
2019-04-20T08:48:27.576Z,34.04
2019-04-20T08:50:53.250Z,34.75
2019-04-20T08:53:27.887Z,33.98
2019-04-20T08:55:47.717Z,34.36
2019-04-20T08:58:02.614Z,34.13
2019-04-20T09:00:35.713Z,33.68
2019-04-20T09:03:09.393Z,33.91
2019-04-20T09:05:43.955Z,33.57
2019-04-20T09:08:11.026Z,33.00
2019-04-20T09:10:49.575Z,33.27
2019-04-20T09:13:11.508Z,33.42
2019-04-20T09:15:32.068Z,32.93
2019-04-20T09:18:13.493Z,31.59
2019-04-20T09:20:45.923Z,32.71
2019-04-20T09:23:23.850Z,31.84
2019-04-20T09:28:27.599Z,32.08
2019-04-20T09:31:25.779Z,33.01
2019-04-20T09:33:55.677Z,33.68
2019-04-20T09:36:40.869Z,33.01
2019-04-20T09:39:14.995Z,33.39
2019-04-20T09:41:59.109Z,33.59
2019-04-20T09:44:08.942Z,33.71
2019-04-20T09:46:44.210Z,32.47
2019-04-20T09:49:18.756Z,34.55
2019-04-20T09:51:54.127Z,34.69
2019-04-20T09:54:27.094Z,34.37
2019-04-20T09:56:59.291Z,33.54
2019-04-20T09:59:25.228Z,34.19
2019-04-20T10:01:44.860Z,34.63
2019-04-20T10:04:07.596Z,33.69
2019-04-20T10:06:36.493Z,34.17
2019-04-20T10:09:07.724Z,34.74
2019-04-20T10:11:37.304Z,35.07
2019-04-20T10:14:06.164Z,34.08
2019-04-20T10:16:35.647Z,33.24
2019-04-20T10:19:04.898Z,35.06
2019-04-20T10:21:33.958Z,33.28
2019-04-20T10:24:02.837Z,33.10
2019-04-20T10:26:32.415Z,33.05
2019-04-20T10:29:01.524Z,32.01
2019-04-20T10:31:30.695Z,32.33
2019-04-20T10:33:59.787Z,32.72
2019-04-20T10:36:35.391Z,33.50
2019-04-20T10:39:06.510Z,32.18
2019-04-20T10:41:44.526Z,31.60
2019-04-20T10:44:04.944Z,31.75
2019-04-20T10:46:33.408Z,31.53
2019-04-20T10:49:04.302Z,31.74
2019-04-20T10:51:31.841Z,32.90
2019-04-20T10:54:00.420Z,32.00
2019-04-20T10:56:29.540Z,30.65
2019-04-20T10:58:57.996Z,30.75
2019-04-20T11:01:27.459Z,31.96
2019-04-20T11:03:56.562Z,32.22
2019-04-20T11:06:25.006Z,32.48
2019-04-20T11:08:53.250Z,31.85
2019-04-20T11:11:26.493Z,29.77
2019-04-20T11:13:53.141Z,29.95
2019-04-20T11:16:22.265Z,30.29
2019-04-20T11:18:51.412Z,31.23
2019-04-20T11:21:19.917Z,30.08
2019-04-20T11:23:48.401Z,28.59
2019-04-20T11:26:18.018Z,29.13
2019-04-20T11:28:46.405Z,29.80
2019-04-20T11:31:14.935Z,29.06
2019-04-20T11:33:43.724Z,29.48
2019-04-20T11:36:12.927Z,29.09
2019-04-20T11:38:42.749Z,30.01
2019-04-20T11:41:18.183Z,29.53
2019-04-20T11:43:41.958Z,29.27
2019-04-20T11:46:10.579Z,28.83
2019-04-20T11:48:39.438Z,28.08
2019-04-20T11:51:07.744Z,28.47
2019-04-20T11:53:36.431Z,28.58
2019-04-20T11:56:08.754Z,30.95
2019-04-20T11:58:36.048Z,30.10
2019-04-20T12:01:18.746Z,29.30
2019-04-20T12:03:56.464Z,29.43
2019-04-20T12:06:15.175Z,31.95
2019-04-20T12:08:44.319Z,28.85
2019-04-20T12:11:27.810Z,28.32
2019-04-20T12:13:44.872Z,28.22
2019-04-20T12:16:13.893Z,30.32
2019-04-20T12:18:42.451Z,28.77
2019-04-20T12:21:10.722Z,27.89
2019-04-20T12:23:40.233Z,28.83
2019-04-20T12:26:09.034Z,29.13
2019-04-20T12:28:37.947Z,28.55
2019-04-20T12:31:13.136Z,28.95
2019-04-20T12:33:36.723Z,28.50
2019-04-20T12:36:07.936Z,27.87
2019-04-20T12:38:37.035Z,27.45
2019-04-20T12:41:07.485Z,27.78
2019-04-20T12:43:36.030Z,27.97
2019-04-20T12:46:05.512Z,27.10
2019-04-20T12:48:34.109Z,26.76
2019-04-20T12:51:03.938Z,26.18
2019-04-20T12:53:32.726Z,26.17
2019-04-20T12:56:02.269Z,25.89
2019-04-20T12:58:30.975Z,26.25
2019-04-20T13:01:00.435Z,25.72
2019-04-20T13:03:29.779Z,26.02
2019-04-20T13:05:58.324Z,25.91
2019-04-20T13:08:33.637Z,25.95
2019-04-20T13:10:58.462Z,25.64
2019-04-20T13:13:28.721Z,25.75
2019-04-20T13:16:08.190Z,25.87
2019-04-20T13:18:41.300Z,26.30
2019-04-20T13:21:09.493Z,26.33
2019-04-20T13:23:37.734Z,24.75
2019-04-20T13:26:08.699Z,25.30
2019-04-20T13:28:37.063Z,25.11
2019-04-20T13:31:06.077Z,25.62
2019-04-20T13:33:34.528Z,25.24
2019-04-20T13:36:03.968Z,25.04
2019-04-20T13:38:32.394Z,23.70
2019-04-20T13:41:01.908Z,23.42
2019-04-20T13:43:30.265Z,22.77
2019-04-20T13:45:58.516Z,23.44
2019-04-20T13:48:26.801Z,24.07
2019-04-20T13:50:56.054Z,24.62
2019-04-20T13:53:25.319Z,22.31
2019-04-20T13:55:54.129Z,21.08
2019-04-20T13:58:40.320Z,21.11
2019-04-20T14:01:10.528Z,21.61
2019-04-20T14:03:38.884Z,21.86
2019-04-20T14:06:07.055Z,21.02
2019-04-20T14:08:35.797Z,20.93
2019-04-20T14:11:05.264Z,21.11
2019-04-20T14:13:39.252Z,20.92
2019-04-20T14:16:04.999Z,23.78
2019-04-20T14:18:33.493Z,21.21
2019-04-20T14:21:02.487Z,20.42
2019-04-20T14:23:30.969Z,20.29
2019-04-20T14:26:00.791Z,20.62
2019-04-20T14:28:29.186Z,19.85
2019-04-20T14:30:58.180Z,19.43
2019-04-20T14:33:26.663Z,19.15
2019-04-20T14:35:54.916Z,19.19
2019-04-20T14:38:24.293Z,19.62
2019-04-20T14:40:52.793Z,19.13
2019-04-20T14:43:21.180Z,20.15
2019-04-20T14:45:50.614Z,19.19
2019-04-20T14:48:18.787Z,19.20
2019-04-20T14:50:47.738Z,19.66
2019-04-20T14:53:15.952Z,19.85
2019-04-20T14:55:44.204Z,20.01
2019-04-20T14:58:23.648Z,18.52
2019-04-20T15:00:54.859Z,18.56
2019-04-20T15:03:28.337Z,18.99
2019-04-20T15:06:00.017Z,19.53
2019-04-20T15:08:28.642Z,19.66
2019-04-20T15:10:58.723Z,18.56
2019-04-20T15:13:28.814Z,19.29
2019-04-20T15:15:58.917Z,19.84
2019-04-20T15:18:31.574Z,18.66
2019-04-20T15:21:05.698Z,19.01
2019-04-20T15:23:35.288Z,18.67
2019-04-20T15:26:04.445Z,18.63
2019-04-20T15:28:32.792Z,18.82
2019-04-20T15:31:02.378Z,18.52
2019-04-20T15:33:30.871Z,18.81
2019-04-20T15:36:00.056Z,18.37
2019-04-20T15:38:29.152Z,17.95
2019-04-20T15:40:57.379Z,18.20
2019-04-20T15:43:27.866Z,18.01
2019-04-20T15:45:57.190Z,18.93
2019-04-20T15:48:26.035Z,17.69
2019-04-20T15:50:54.270Z,17.87
2019-04-20T15:53:23.908Z,17.37
2019-04-20T15:55:52.424Z,17.35
2019-04-20T15:58:20.735Z,17.23
2019-04-20T16:00:50.895Z,17.73
2019-04-20T16:03:23.359Z,17.70
2019-04-20T16:05:56.680Z,17.64
2019-04-20T16:08:36.683Z,19.60
2019-04-20T16:11:05.316Z,17.75
2019-04-20T16:13:39.514Z,17.98
2019-04-20T16:16:05.842Z,17.09
2019-04-20T16:18:34.923Z,17.27
2019-04-20T16:21:09.307Z,16.82
2019-04-20T16:23:34.880Z,17.38
2019-04-20T16:26:05.916Z,17.51
2019-04-20T16:28:35.360Z,17.27
2019-04-20T16:31:06.560Z,17.55
2019-04-20T16:33:34.536Z,18.28
2019-04-20T16:36:03.072Z,17.80
2019-04-20T16:38:31.477Z,17.49
2019-04-20T16:41:00.091Z,17.68
2019-04-20T16:43:33.930Z,17.86
2019-04-20T16:45:59.289Z,18.05
2019-04-20T16:48:28.267Z,18.45
2019-04-20T16:50:56.725Z,18.36
2019-04-20T16:53:24.975Z,18.59
2019-04-20T16:55:53.212Z,18.95
2019-04-20T16:58:21.816Z,19.34
2019-04-20T17:00:50.126Z,19.93
2019-04-20T17:03:19.566Z,20.51
2019-04-20T17:05:51.027Z,21.03
2019-04-20T17:08:18.736Z,21.50
2019-04-20T17:10:48.824Z,21.98
2019-04-20T17:13:28.507Z,22.45
2019-04-20T17:15:47.905Z,22.83
2019-04-20T17:18:16.243Z,23.12
2019-04-20T17:20:44.744Z,23.27
2019-04-20T17:23:13.120Z,23.39
2019-04-20T17:25:41.974Z,23.63
2019-04-20T17:28:17.945Z,23.64
2019-04-20T17:30:59.366Z,23.84
2019-04-20T17:33:54.638Z,24.11
2019-04-20T17:36:19.038Z,24.27
2019-04-20T17:38:48.504Z,24.62
2019-04-20T17:41:34.719Z,24.87
2019-04-20T17:44:01.433Z,25.09
2019-04-20T17:46:24.748Z,25.39
2019-04-20T17:48:59.114Z,25.28
2019-04-20T17:51:37.174Z,25.37
2019-04-20T17:53:52.725Z,25.62
2019-04-20T17:56:17.333Z,25.56
2019-04-20T17:58:46.163Z,25.48
2019-04-20T18:01:35.839Z,25.70
2019-04-20T18:04:31.101Z,25.59
2019-04-20T18:06:44.099Z,25.36
2019-04-20T18:09:07.124Z,25.51
2019-04-20T18:11:32.737Z,25.70
2019-04-20T18:14:05.597Z,25.73
2019-04-20T18:16:51.069Z,25.78
2019-04-20T18:19:19.228Z,25.85
2019-04-20T18:21:43.858Z,26.11
2019-04-20T18:24:24.015Z,26.39
2019-04-20T18:26:59.747Z,26.40
2019-04-20T18:29:32.283Z,26.54
2019-04-20T18:31:43.821Z,26.68
2019-04-20T18:34:16.440Z,26.85
2019-04-20T18:36:47.198Z,27.14
2019-04-20T18:39:16.553Z,27.28
2019-04-20T18:41:48.624Z,27.44
2019-04-20T18:44:14.843Z,27.75
2019-04-20T18:47:06.633Z,27.90
2019-04-20T18:49:31.320Z,28.12
2019-04-20T18:51:43.940Z,28.31
2019-04-20T18:54:19.447Z,28.60
2019-04-20T18:56:47.372Z,28.81
2019-04-20T18:59:13.368Z,28.84
2019-04-20T19:01:43.794Z,29.12
2019-04-20T19:04:12.377Z,29.31
2019-04-20T19:06:41.452Z,29.43
2019-04-20T19:09:17.770Z,29.58
2019-04-20T19:11:43.533Z,29.73
2019-04-20T19:14:33.610Z,30.09
2019-04-20T19:17:09.024Z,30.42
2019-04-20T19:19:39.403Z,30.65
2019-04-20T19:22:01.763Z,30.50
2019-04-20T19:24:34.565Z,30.82
2019-04-20T19:27:05.080Z,30.95
2019-04-20T19:29:38.137Z,31.12
2019-04-20T19:32:20.703Z,31.35
2019-04-20T19:34:45.318Z,31.55
2019-04-20T19:37:13.715Z,31.73
2019-04-20T19:39:47.388Z,31.86
2019-04-20T19:42:16.034Z,32.04
2019-04-20T19:44:45.142Z,32.22
2019-04-20T19:47:21.060Z,32.44
2019-04-20T19:49:41.919Z,32.52
2019-04-20T19:52:32.747Z,32.63
2019-04-20T19:54:50.757Z,32.87
2019-04-20T19:57:24.375Z,33.19
2019-04-20T19:59:39.886Z,33.15
2019-04-20T20:02:03.663Z,33.32
2019-04-20T20:04:42.586Z,33.44
2019-04-20T20:07:05.548Z,33.48
2019-04-20T20:09:37.880Z,33.69
2019-04-20T20:12:05.116Z,33.87
2019-04-20T20:14:36.792Z,33.85
2019-04-20T20:17:19.955Z,33.97
2019-04-20T20:19:54.567Z,33.89
2019-04-20T20:22:12.766Z,34.00
2019-04-20T20:24:33.348Z,34.11
2019-04-20T20:27:06.223Z,34.29
2019-04-20T20:29:40.958Z,34.41
2019-04-20T20:32:16.738Z,34.46
2019-04-20T20:34:40.512Z,34.59
2019-04-20T20:37:08.465Z,34.71
2019-04-20T20:39:36.255Z,34.59
2019-04-20T20:42:15.188Z,34.76
2019-04-20T20:44:41.209Z,34.65
2019-04-20T20:47:21.702Z,34.75
2019-04-20T20:49:56.854Z,34.91
2019-04-20T20:52:22.037Z,35.13
2019-04-20T20:54:44.897Z,35.21
2019-04-20T20:57:07.354Z,35.20
2019-04-20T20:59:43.015Z,35.28
2019-04-20T21:02:08.894Z,35.26
2019-04-20T21:04:33.465Z,35.23
2019-04-20T21:07:02.718Z,35.13
2019-04-20T21:09:31.369Z,34.99
2019-04-20T21:12:06.589Z,34.94
2019-04-20T21:14:34.699Z,35.06
2019-04-20T21:17:04.963Z,34.94
2019-04-20T21:19:48.064Z,34.90
2019-04-20T21:22:06.912Z,34.85
2019-04-20T21:24:31.167Z,34.92
2019-04-20T21:27:07.012Z,34.98
2019-04-20T21:29:35.875Z,34.95
2019-04-20T21:32:05.100Z,35.06
2019-04-20T21:34:31.160Z,34.83
2019-04-20T21:37:07.044Z,34.93
2019-04-20T21:39:38.919Z,35.05
2019-04-20T21:42:06.459Z,34.85
2019-04-20T21:44:35.107Z,34.88
2019-04-20T21:47:00.325Z,34.98
2019-04-20T21:49:43.630Z,34.90
2019-04-20T21:52:03.650Z,34.99
2019-04-20T21:54:29.844Z,35.08
2019-04-20T21:57:03.156Z,35.08
2019-04-20T21:59:35.136Z,35.09
2019-04-20T22:02:06.521Z,35.08
2019-04-20T22:04:29.126Z,35.17
2019-04-20T22:06:58.309Z,35.19
2019-04-20T22:09:34.432Z,35.74
2019-04-20T22:11:58.007Z,35.55
2019-04-20T22:14:28.388Z,35.62
2019-04-20T22:16:58.356Z,35.69
2019-04-20T22:19:36.678Z,35.75
2019-04-20T22:22:07.741Z,35.63
2019-04-20T22:24:42.471Z,35.57
2019-04-20T22:27:06.329Z,35.87
2019-04-20T22:29:26.485Z,36.02
2019-04-20T22:32:01.428Z,36.41
2019-04-20T22:34:27.937Z,36.42
2019-04-20T22:36:56.013Z,37.28
2019-04-20T22:39:32.186Z,37.37
2019-04-20T22:42:03.215Z,38.97
2019-04-20T22:44:28.753Z,39.86
2019-04-20T22:46:56.550Z,39.15
2019-04-20T22:49:39.961Z,38.76
2019-04-20T22:52:04.068Z,39.33
2019-04-20T22:54:39.738Z,39.76
2019-04-20T22:57:03.335Z,39.47
2019-04-20T22:59:37.216Z,39.47
2019-04-20T23:01:59.919Z,39.30
2019-04-20T23:04:25.032Z,39.19
2019-04-20T23:06:55.155Z,39.30
2019-04-20T23:09:24.626Z,39.28
2019-04-20T23:12:01.002Z,39.32
2019-04-20T23:14:22.944Z,39.33
2019-04-20T23:16:53.959Z,39.44
2019-04-20T23:19:31.991Z,39.50
2019-04-20T23:21:57.272Z,39.61
2019-04-20T23:24:21.955Z,39.83
2019-04-20T23:26:50.857Z,39.95
2019-04-20T23:29:21.400Z,39.98
2019-04-20T23:31:56.927Z,39.99
2019-04-20T23:34:23.145Z,40.07
2019-04-20T23:36:50.758Z,40.21
2019-04-20T23:39:22.580Z,40.63
2019-04-20T23:41:56.662Z,40.83
2019-04-20T23:44:23.638Z,40.94
2019-04-20T23:47:06.877Z,40.99
2019-04-20T23:49:50.789Z,41.10
2019-04-20T23:52:27.001Z,41.20
2019-04-20T23:54:34.055Z,41.29
2019-04-20T23:57:01.778Z,41.39
2019-04-20T23:59:37.382Z,41.30
